createdAt,value
2023-05-09T00:02:15.178Z,68.56
2023-05-09T00:04:42.440Z,68.33
2023-05-09T00:07:10.694Z,68.53
2023-05-09T00:09:37.308Z,68.99
2023-05-09T00:12:04.326Z,69.32
2023-05-09T00:14:33.633Z,69.55
2023-05-09T00:17:00.841Z,69.88
2023-05-09T00:19:27.705Z,70.37
2023-05-09T00:21:54.361Z,70.62
2023-05-09T00:24:20.975Z,70.50
2023-05-09T00:26:47.588Z,71.30
2023-05-09T00:29:14.213Z,71.75
2023-05-09T00:31:40.844Z,71.70
2023-05-09T00:34:07.558Z,71.89
2023-05-09T00:36:34.205Z,72.94
2023-05-09T00:39:00.818Z,72.28
2023-05-09T00:41:27.473Z,72.53
2023-05-09T00:43:54.062Z,72.73
2023-05-09T00:46:21.204Z,73.40
2023-05-09T00:48:48.262Z,73.70
2023-05-09T00:51:15.006Z,74.39
2023-05-09T00:53:41.866Z,76.19
2023-05-09T00:56:08.493Z,76.03
2023-05-09T00:58:35.096Z,76.45
2023-05-09T01:01:03.864Z,76.84
2023-05-09T01:03:31.427Z,77.92
2023-05-09T01:06:41.210Z,77.73
2023-05-09T01:09:24.960Z,79.24
2023-05-09T01:12:00.892Z,78.47
2023-05-09T01:14:37.800Z,78.13
2023-05-09T01:17:46.236Z,79.27
2023-05-09T01:20:39.210Z,78.95
2023-05-09T01:23:30.673Z,79.49
2023-05-09T01:26:26.877Z,79.68
2023-05-09T01:28:56.806Z,78.59
2023-05-09T01:31:24.802Z,79.76
2023-05-09T01:33:57.136Z,80.58
2023-05-09T01:36:23.755Z,80.58
2023-05-09T01:38:50.635Z,80.90
2023-05-09T01:41:17.623Z,82.41
2023-05-09T01:43:45.902Z,81.60
2023-05-09T01:46:12.926Z,81.23
2023-05-09T01:48:41.134Z,82.61
2023-05-09T01:51:07.993Z,82.88
2023-05-09T01:53:34.694Z,82.53
2023-05-09T01:56:02.982Z,84.06
2023-05-09T01:58:30.016Z,83.29
2023-05-09T02:00:56.698Z,82.63
2023-05-09T02:03:23.539Z,83.90
2023-05-09T02:05:50.460Z,84.56
2023-05-09T02:08:17.869Z,82.64
2023-05-09T02:10:44.457Z,82.03
2023-05-09T02:13:11.238Z,82.51
2023-05-09T02:15:38.466Z,83.02
2023-05-09T02:18:05.440Z,84.00
2023-05-09T02:20:35.842Z,85.59
2023-05-09T02:23:02.523Z,86.90
2023-05-09T02:25:29.187Z,87.08
2023-05-09T02:27:57.011Z,85.47
2023-05-09T02:30:25.500Z,85.08
2023-05-09T02:32:55.500Z,87.01
2023-05-09T02:35:22.307Z,87.66
2023-05-09T02:37:48.921Z,87.07
2023-05-09T02:40:15.533Z,87.46
2023-05-09T02:42:42.170Z,88.23
2023-05-09T02:45:10.574Z,87.67
2023-05-09T02:47:38.073Z,86.90
2023-05-09T02:50:06.064Z,85.83
2023-05-09T02:52:33.370Z,84.54
2023-05-09T02:55:00.118Z,85.16
2023-05-09T02:57:27.069Z,85.93
2023-05-09T02:59:53.685Z,86.78
2023-05-09T03:02:20.508Z,87.11
2023-05-09T03:04:47.379Z,87.33
2023-05-09T03:07:13.996Z,87.56
2023-05-09T03:09:41.432Z,88.46
2023-05-09T03:12:08.389Z,89.11
2023-05-09T03:14:35.819Z,89.30
2023-05-09T03:17:02.882Z,90.36
2023-05-09T03:19:33.689Z,90.76
2023-05-09T03:22:00.306Z,90.81
2023-05-09T03:24:30.805Z,90.92
2023-05-09T03:26:57.430Z,91.26
2023-05-09T03:29:24.408Z,92.04
2023-05-09T03:31:51.191Z,92.14
2023-05-09T03:34:18.058Z,92.67
2023-05-09T03:36:45.063Z,93.27
2023-05-09T03:39:13.193Z,93.55
2023-05-09T03:41:41.903Z,94.25
2023-05-09T03:44:08.732Z,94.02
2023-05-09T03:46:35.479Z,93.56
2023-05-09T03:49:04.384Z,93.56
2023-05-09T03:51:32.341Z,93.59
2023-05-09T03:54:00.242Z,93.96
2023-05-09T03:56:27.419Z,94.27
2023-05-09T03:58:54.214Z,95.37
2023-05-09T04:01:21.463Z,95.95
2023-05-09T04:03:48.131Z,95.18
2023-05-09T04:06:15.583Z,95.37
2023-05-09T04:08:43.594Z,95.87
2023-05-09T04:11:10.747Z,96.23
2023-05-09T04:13:38.362Z,96.06
2023-05-09T04:16:11.520Z,95.95
2023-05-09T04:18:42.264Z,96.84
2023-05-09T04:21:09.517Z,96.28
2023-05-09T04:23:36.812Z,95.06
2023-05-09T04:26:03.777Z,94.97
2023-05-09T04:28:30.611Z,94.17
2023-05-09T04:30:58.258Z,93.09
2023-05-09T04:33:24.966Z,91.47
2023-05-09T04:35:52.421Z,90.66
2023-05-09T04:38:19.315Z,88.96
2023-05-09T04:40:46.378Z,87.76
2023-05-09T04:43:13.316Z,85.59
2023-05-09T04:45:40.711Z,83.53
2023-05-09T04:48:07.807Z,81.52
2023-05-09T04:50:34.671Z,80.84
2023-05-09T04:53:03.334Z,78.54
2023-05-09T04:55:30.546Z,77.91
2023-05-09T04:57:57.378Z,75.30
2023-05-09T05:00:24.915Z,73.91
2023-05-09T05:02:51.639Z,73.76
2023-05-09T05:05:24.582Z,72.69
2023-05-09T05:07:54.221Z,72.26
2023-05-09T05:10:22.123Z,71.17
2023-05-09T05:12:52.808Z,71.31
2023-05-09T05:15:19.700Z,69.79
2023-05-09T05:17:47.081Z,68.40
2023-05-09T05:20:15.081Z,68.21
2023-05-09T05:22:44.213Z,67.64
2023-05-09T05:25:11.667Z,66.88
2023-05-09T05:27:38.782Z,65.87
2023-05-09T05:30:07.642Z,65.47
2023-05-09T05:32:34.530Z,64.32
2023-05-09T05:35:02.633Z,63.64
2023-05-09T05:37:29.724Z,63.30
2023-05-09T05:39:56.504Z,63.58
2023-05-09T05:42:24.420Z,62.56
2023-05-09T05:44:51.285Z,62.50
2023-05-09T05:47:17.937Z,62.81
2023-05-09T05:49:45.489Z,62.08
2023-05-09T05:52:12.384Z,61.75
2023-05-09T05:54:39.513Z,62.16
2023-05-09T05:57:06.620Z,62.15
2023-05-09T05:59:33.334Z,61.06
2023-05-09T06:02:00.375Z,60.08
2023-05-09T06:04:29.017Z,59.62
2023-05-09T06:06:55.729Z,59.01
2023-05-09T06:09:22.326Z,59.27
2023-05-09T06:11:49.007Z,59.82
2023-05-09T06:14:15.778Z,59.15
2023-05-09T06:16:42.479Z,59.20
2023-05-09T06:19:09.367Z,59.03
2023-05-09T06:21:35.963Z,58.03
2023-05-09T06:24:11.809Z,58.23
2023-05-09T06:26:41.312Z,57.94
2023-05-09T06:29:08.058Z,57.42
2023-05-09T06:31:38.553Z,57.64
2023-05-09T06:34:06.240Z,57.11
2023-05-09T06:36:33.632Z,57.98
2023-05-09T06:39:00.539Z,56.60
2023-05-09T06:41:27.155Z,56.23
2023-05-09T06:43:53.953Z,56.10
2023-05-09T06:46:21.212Z,55.26
2023-05-09T06:48:48.029Z,55.21
2023-05-09T06:51:14.843Z,53.35
2023-05-09T06:53:41.450Z,53.67
2023-05-09T06:56:08.071Z,52.88
2023-05-09T06:58:34.949Z,52.82
2023-05-09T07:01:01.919Z,51.06
2023-05-09T07:03:28.887Z,50.58
2023-05-09T07:06:02.686Z,49.18
2023-05-09T07:08:29.347Z,48.72
2023-05-09T07:10:55.945Z,49.44
2023-05-09T07:13:22.914Z,49.40
2023-05-09T07:15:49.745Z,49.23
2023-05-09T07:18:16.411Z,48.22
2023-05-09T07:20:43.120Z,48.16
2023-05-09T07:23:09.765Z,48.12
2023-05-09T07:25:36.455Z,48.69
2023-05-09T07:28:03.081Z,47.90
2023-05-09T07:30:29.710Z,47.59
2023-05-09T07:32:56.332Z,47.22
2023-05-09T07:35:23.195Z,47.04
2023-05-09T07:37:49.809Z,46.75
2023-05-09T07:40:16.809Z,45.67
2023-05-09T07:42:49.707Z,45.82
2023-05-09T07:45:16.845Z,44.46
2023-05-09T07:47:44.049Z,45.30
2023-05-09T07:50:11.462Z,45.08
2023-05-09T07:52:38.313Z,42.85
2023-05-09T07:55:05.776Z,41.72
2023-05-09T07:57:32.402Z,40.80
2023-05-09T07:59:59.639Z,40.71
2023-05-09T08:02:26.593Z,39.14
2023-05-09T08:04:53.433Z,39.25
2023-05-09T08:07:20.339Z,38.63
2023-05-09T08:09:47.161Z,38.13
2023-05-09T08:12:14.041Z,38.77
2023-05-09T08:14:40.861Z,39.70
2023-05-09T08:17:07.603Z,39.10
2023-05-09T08:19:34.249Z,38.17
2023-05-09T08:22:00.887Z,38.42
2023-05-09T08:24:27.477Z,38.33
2023-05-09T08:26:54.069Z,37.97
2023-05-09T08:29:20.727Z,37.77
2023-05-09T08:31:47.367Z,37.38
2023-05-09T08:34:14.073Z,36.59
2023-05-09T08:36:41.266Z,36.77
2023-05-09T08:39:09.636Z,36.20
2023-05-09T08:41:36.429Z,36.47
2023-05-09T08:44:03.385Z,36.46
2023-05-09T08:46:37.415Z,36.91
2023-05-09T08:49:07.493Z,37.03
2023-05-09T08:51:35.489Z,36.59
2023-05-09T08:54:02.464Z,36.44
2023-05-09T08:56:30.599Z,36.37
2023-05-09T08:58:57.219Z,38.45
2023-05-09T09:01:24.494Z,36.44
2023-05-09T09:03:51.268Z,35.92
2023-05-09T09:06:18.797Z,35.32
2023-05-09T09:08:45.558Z,35.39
2023-05-09T09:11:13.553Z,35.92
2023-05-09T09:13:41.021Z,35.61
2023-05-09T09:16:09.469Z,35.23
2023-05-09T09:18:36.142Z,34.81
2023-05-09T09:21:07.509Z,34.61
2023-05-09T09:23:34.137Z,33.66
2023-05-09T09:26:06.918Z,33.95
2023-05-09T09:28:33.736Z,32.80
2023-05-09T09:31:00.593Z,32.74
2023-05-09T09:33:27.787Z,32.57
2023-05-09T09:35:56.160Z,32.55
2023-05-09T09:38:23.455Z,33.12
2023-05-09T09:40:56.753Z,34.26
2023-05-09T09:43:30.442Z,33.95
2023-05-09T09:45:57.915Z,33.02
2023-05-09T09:48:25.696Z,33.80
2023-05-09T09:50:54.983Z,34.05
2023-05-09T09:53:21.977Z,34.20
2023-05-09T09:55:52.321Z,34.02
2023-05-09T09:58:21.961Z,34.21
2023-05-09T10:00:50.429Z,34.42
2023-05-09T10:03:17.673Z,32.95
2023-05-09T10:05:45.140Z,32.38
2023-05-09T10:08:12.044Z,32.64
2023-05-09T10:10:38.934Z,31.70
2023-05-09T10:13:12.088Z,33.07
2023-05-09T10:15:52.426Z,33.10
2023-05-09T10:18:21.698Z,32.61
2023-05-09T10:20:48.582Z,32.10
2023-05-09T10:23:15.286Z,32.61
2023-05-09T10:25:48.305Z,32.91
2023-05-09T10:28:17.942Z,33.41
2023-05-09T10:31:00.111Z,34.54
2023-05-09T10:33:42.471Z,36.15
2023-05-09T10:36:09.472Z,37.04
2023-05-09T10:38:36.171Z,36.81
2023-05-09T10:41:03.125Z,35.95
2023-05-09T10:43:31.611Z,33.56
2023-05-09T10:45:59.099Z,32.26
2023-05-09T10:48:25.745Z,32.10
2023-05-09T10:50:52.968Z,32.13
2023-05-09T10:53:21.757Z,31.97
2023-05-09T10:55:56.591Z,33.11
2023-05-09T10:58:31.972Z,33.18
2023-05-09T11:00:59.795Z,32.64
2023-05-09T11:03:27.838Z,32.02
2023-05-09T11:05:56.026Z,31.78
2023-05-09T11:08:27.074Z,32.23
2023-05-09T11:10:58.302Z,34.01
2023-05-09T11:13:25.706Z,33.72
2023-05-09T11:16:01.854Z,33.59
2023-05-09T11:18:29.227Z,33.29
2023-05-09T11:20:56.138Z,33.89
2023-05-09T11:23:26.530Z,34.05
2023-05-09T11:25:53.584Z,33.26
2023-05-09T11:28:31.325Z,33.23
2023-05-09T11:31:11.191Z,33.27
2023-05-09T11:33:38.010Z,33.83
2023-05-09T11:36:25.152Z,33.58
2023-05-09T11:39:06.557Z,33.52
2023-05-09T11:41:44.087Z,33.21
2023-05-09T11:44:20.856Z,32.69
2023-05-09T11:46:48.888Z,32.76
2023-05-09T11:49:16.923Z,32.94
2023-05-09T11:51:43.653Z,33.67
2023-05-09T11:54:12.019Z,33.65
2023-05-09T11:56:39.951Z,33.92
2023-05-09T11:59:07.506Z,35.40
2023-05-09T12:01:34.091Z,34.71
2023-05-09T12:04:02.556Z,34.04
2023-05-09T12:06:30.186Z,33.78
2023-05-09T12:09:00.028Z,33.08
2023-05-09T12:11:26.677Z,33.18
2023-05-09T12:13:53.492Z,33.22
2023-05-09T12:16:21.809Z,33.84
2023-05-09T12:18:52.593Z,33.45
2023-05-09T12:21:19.568Z,34.09
2023-05-09T12:23:48.940Z,35.11
2023-05-09T12:26:17.729Z,35.19
2023-05-09T12:28:44.476Z,35.79
2023-05-09T12:31:11.186Z,35.06
2023-05-09T12:33:38.787Z,36.12
2023-05-09T12:36:10.974Z,35.84
2023-05-09T12:38:37.805Z,35.46
2023-05-09T12:41:15.386Z,34.26
2023-05-09T12:43:55.533Z,34.41
2023-05-09T12:46:22.227Z,33.72
2023-05-09T12:48:49.509Z,33.60
2023-05-09T12:51:20.609Z,33.47
2023-05-09T12:53:47.348Z,35.13
2023-05-09T12:56:15.584Z,34.82
2023-05-09T12:58:55.244Z,34.33
2023-05-09T13:01:24.059Z,32.77
2023-05-09T13:03:52.411Z,34.41
2023-05-09T13:06:19.750Z,34.27
2023-05-09T13:08:59.925Z,35.25
2023-05-09T13:11:27.134Z,35.42
2023-05-09T13:13:56.903Z,35.77
2023-05-09T13:16:23.718Z,36.09
2023-05-09T13:18:50.487Z,35.35
2023-05-09T13:21:17.105Z,34.74
2023-05-09T13:23:45.485Z,35.41
2023-05-09T13:26:12.408Z,35.18
2023-05-09T13:28:39.166Z,34.36
2023-05-09T13:31:06.892Z,35.02
2023-05-09T13:33:33.866Z,35.36
2023-05-09T13:36:00.846Z,34.47
2023-05-09T13:38:30.769Z,34.01
2023-05-09T13:40:57.712Z,34.55
2023-05-09T13:43:24.317Z,35.19
2023-05-09T13:45:50.969Z,34.77
2023-05-09T13:48:17.627Z,34.77
2023-05-09T13:50:44.620Z,34.95
2023-05-09T13:53:11.232Z,34.59
2023-05-09T13:55:37.938Z,34.64
2023-05-09T13:58:04.671Z,34.43
2023-05-09T14:00:31.326Z,34.92
2023-05-09T14:02:58.027Z,35.29
2023-05-09T14:05:24.680Z,34.74
2023-05-09T14:07:51.904Z,34.68
2023-05-09T14:10:18.789Z,35.05
2023-05-09T14:12:47.331Z,35.26
2023-05-09T14:15:14.160Z,35.79
2023-05-09T14:17:40.914Z,35.28
2023-05-09T14:20:08.373Z,35.69
2023-05-09T14:22:35.100Z,36.07
2023-05-09T14:25:01.730Z,35.64
2023-05-09T14:27:28.370Z,35.67
2023-05-09T14:29:55.374Z,35.68
2023-05-09T14:32:22.080Z,35.55
2023-05-09T14:34:51.835Z,35.40
2023-05-09T14:37:18.438Z,35.76
2023-05-09T14:39:45.596Z,35.80
2023-05-09T14:42:14.131Z,36.47
2023-05-09T14:44:41.483Z,35.82
2023-05-09T14:47:12.139Z,36.15
2023-05-09T14:49:39.966Z,35.73
2023-05-09T14:52:06.589Z,35.71
2023-05-09T14:54:33.177Z,36.05
2023-05-09T14:57:02.089Z,36.17
2023-05-09T14:59:29.678Z,36.60
2023-05-09T15:01:56.290Z,36.49
2023-05-09T15:04:28.090Z,36.21
2023-05-09T15:06:54.866Z,35.77
2023-05-09T15:09:21.688Z,35.53
2023-05-09T15:11:49.369Z,35.76
2023-05-09T15:14:17.047Z,35.70
2023-05-09T15:16:43.926Z,35.57
2023-05-09T15:19:10.865Z,35.45
2023-05-09T15:21:37.498Z,35.34
2023-05-09T15:24:04.851Z,35.83
2023-05-09T15:26:32.408Z,35.73
2023-05-09T15:28:59.334Z,35.51
2023-05-09T15:31:26.325Z,35.71
2023-05-09T15:33:53.336Z,35.91
2023-05-09T15:36:20.131Z,35.06
2023-05-09T15:38:49.451Z,35.14
2023-05-09T15:41:16.836Z,35.27
2023-05-09T15:43:43.606Z,35.56
2023-05-09T15:46:10.332Z,36.18
2023-05-09T15:48:37.088Z,36.73
2023-05-09T15:51:04.247Z,36.21
2023-05-09T15:53:31.156Z,36.17
2023-05-09T15:55:57.937Z,37.00
2023-05-09T15:58:24.639Z,36.23
2023-05-09T16:00:51.581Z,35.91
2023-05-09T16:03:18.926Z,35.63
2023-05-09T16:05:45.668Z,35.73
2023-05-09T16:08:12.561Z,36.29
2023-05-09T16:10:39.737Z,36.04
2023-05-09T16:13:07.422Z,36.05
2023-05-09T16:15:34.277Z,36.13
2023-05-09T16:18:00.917Z,36.29
2023-05-09T16:20:27.896Z,36.67
2023-05-09T16:22:54.523Z,35.73
2023-05-09T16:25:21.128Z,36.04
2023-05-09T16:27:47.839Z,36.57
2023-05-09T16:30:15.391Z,36.36
2023-05-09T16:32:42.647Z,35.99
2023-05-09T16:35:09.723Z,35.82
2023-05-09T16:37:36.578Z,35.69
2023-05-09T16:40:04.477Z,36.30
2023-05-09T16:42:31.224Z,36.29
2023-05-09T16:44:58.087Z,35.58
2023-05-09T16:47:25.031Z,35.52
2023-05-09T16:49:51.802Z,35.52
2023-05-09T16:52:18.455Z,35.88
2023-05-09T16:54:45.395Z,36.22
2023-05-09T16:57:12.776Z,36.43
2023-05-09T16:59:39.657Z,36.32
2023-05-09T17:02:06.462Z,36.55
2023-05-09T17:04:33.892Z,36.55
2023-05-09T17:07:01.940Z,36.97
2023-05-09T17:09:28.880Z,36.85
2023-05-09T17:11:55.981Z,36.77
2023-05-09T17:14:22.676Z,36.80
2023-05-09T17:16:49.460Z,37.14
2023-05-09T17:19:16.875Z,37.05
2023-05-09T17:21:44.335Z,37.42
2023-05-09T17:24:11.034Z,37.57
2023-05-09T17:26:38.693Z,37.73
2023-05-09T17:29:05.488Z,37.87
2023-05-09T17:31:32.437Z,38.13
2023-05-09T17:33:59.060Z,38.20
2023-05-09T17:36:26.044Z,38.40
2023-05-09T17:38:52.683Z,38.79
2023-05-09T17:41:19.461Z,38.68
2023-05-09T17:43:46.141Z,38.45
2023-05-09T17:46:14.815Z,38.40
2023-05-09T17:48:42.094Z,38.61
2023-05-09T17:51:09.170Z,38.74
2023-05-09T17:53:35.834Z,38.71
2023-05-09T20:01:33.164Z,53.38
2023-05-09T20:04:00.381Z,53.74
2023-05-09T20:06:27.269Z,54.24
2023-05-09T20:08:53.890Z,54.50
2023-05-09T20:11:21.618Z,54.89
2023-05-09T20:13:48.274Z,55.04
2023-05-09T20:16:15.179Z,55.22
2023-05-09T20:18:41.884Z,54.87
2023-05-09T20:21:10.398Z,54.92
2023-05-09T20:23:38.189Z,55.45
2023-05-09T20:26:05.580Z,55.60
2023-05-09T20:28:32.541Z,56.32
2023-05-09T20:31:00.521Z,55.87
2023-05-09T20:33:27.333Z,56.22
2023-05-09T20:35:54.086Z,56.17
2023-05-09T20:38:20.700Z,56.02
2023-05-09T20:40:47.947Z,55.79
2023-05-09T20:43:14.532Z,56.38
2023-05-09T20:45:41.470Z,56.37
2023-05-09T20:48:08.294Z,55.87
2023-05-09T20:50:35.036Z,55.50
2023-05-09T20:53:01.675Z,56.02
2023-05-09T20:55:28.452Z,55.98
2023-05-09T20:57:55.103Z,55.81
2023-05-09T21:00:21.699Z,56.76
2023-05-09T21:02:48.694Z,56.56
2023-05-09T21:05:15.748Z,57.58
2023-05-09T21:07:42.322Z,58.01
2023-05-09T21:10:10.499Z,57.67
2023-05-09T21:12:37.253Z,58.58
2023-05-09T21:15:04.558Z,58.19
2023-05-09T21:17:31.441Z,57.55
2023-05-09T21:19:58.142Z,58.28
2023-05-09T21:22:25.095Z,58.72
2023-05-09T21:24:51.687Z,58.16
2023-05-09T21:27:18.337Z,58.31
2023-05-09T21:29:49.195Z,58.56
2023-05-09T21:32:17.073Z,59.22
2023-05-09T21:34:43.692Z,59.60
2023-05-09T21:37:10.308Z,60.42
2023-05-09T21:41:29.000Z,61.17
2023-05-09T21:43:56.179Z,61.43
2023-05-09T21:46:22.861Z,60.89
2023-05-09T21:48:49.681Z,60.89
2023-05-09T21:51:16.292Z,61.23
2023-05-09T21:53:42.941Z,61.56
2023-05-09T21:56:09.566Z,61.88
2023-05-09T21:58:36.300Z,61.97
2023-05-09T22:01:02.995Z,61.97
2023-05-09T22:03:29.890Z,61.49
2023-05-09T22:05:56.725Z,61.19
2023-05-09T22:08:23.346Z,61.57
2023-05-09T22:10:51.015Z,61.35
2023-05-09T22:13:17.616Z,61.65
2023-05-09T22:15:44.235Z,61.48
2023-05-09T22:18:11.502Z,60.98
2023-05-09T22:20:38.115Z,61.02
2023-05-09T22:23:04.717Z,61.84
2023-05-09T22:25:31.350Z,62.81
2023-05-09T22:27:58.048Z,64.03
2023-05-09T22:30:24.871Z,64.19
2023-05-09T22:32:52.092Z,64.45
2023-05-09T22:35:18.708Z,65.05
2023-05-09T22:37:45.369Z,64.96
2023-05-09T22:40:13.902Z,64.98
2023-05-09T22:42:40.733Z,65.18
2023-05-09T22:45:08.189Z,65.34
2023-05-09T22:47:34.879Z,65.86
2023-05-09T22:50:01.740Z,66.81
2023-05-09T22:52:28.332Z,67.15
2023-05-09T22:54:54.924Z,67.68
2023-05-09T22:57:23.755Z,67.52
2023-05-09T22:59:51.124Z,67.37
2023-05-09T23:02:17.783Z,65.98
2023-05-09T23:04:44.659Z,65.05
2023-05-09T23:07:11.724Z,65.13
2023-05-09T23:09:38.900Z,65.32
2023-05-09T23:12:06.251Z,65.97
2023-05-09T23:14:32.860Z,66.30
2023-05-09T23:16:59.585Z,66.89
2023-05-09T23:19:26.238Z,67.40
2023-05-09T23:21:53.366Z,67.61
2023-05-09T23:24:20.148Z,68.09
2023-05-09T23:26:46.773Z,68.67
2023-05-09T23:29:13.406Z,69.33
2023-05-09T23:31:40.061Z,70.43
2023-05-09T23:34:06.677Z,70.30
2023-05-09T23:36:33.359Z,70.99
2023-05-09T23:39:00.036Z,71.85
2023-05-09T23:41:26.647Z,72.70
2023-05-09T23:43:53.310Z,74.17
2023-05-09T23:46:19.957Z,73.23
2023-05-09T23:48:46.790Z,74.14
2023-05-09T23:51:13.368Z,74.09
2023-05-09T23:53:39.961Z,73.52
2023-05-09T23:56:07.308Z,72.93
2023-05-09T23:58:34.012Z,71.91
